DLH522 EDDC-EDDL
Flight info
| Callsign | DLH522 |
|---|---|
| Flight time | 0h 54m |
| Altitude | 24000 |
| Route | BEBEX7E BEBEX Q230 WRB/N0370F200 T854 DOMUX DOMUX1A |
| Aircraft | A388/J-SADE2E3FGHIJ3J4J5M1RWXY/LB1D1 |
Departure
| Time | 2026-05-06 18:39 |
|---|---|
| Airport | Dresden Airport (EDDC) |
Arrival
| Time | 2026-05-06 19:33 |
|---|---|
| Airport | Düsseldorf Airport (EDDL) |
| Time | Latitude | Longitude | Altitude | Speed | Heading |
|---|---|---|---|---|---|
| 2026-05-06 18:16 | 51.12544 | 13.76252 | 721 ft | 0 kts | 131° |
| 2026-05-06 18:30 | 51.12551 | 13.76239 | 720 ft | 4 kts | 133° |
| 2026-05-06 18:30 | 51.12570 | 13.76209 | 718 ft | 4 kts | 140° |
| 2026-05-06 18:30 | 51.12592 | 13.76186 | 719 ft | 4 kts | 153° |
| 2026-05-06 18:30 | 51.12615 | 13.76174 | 719 ft | 4 kts | 175° |
| 2026-05-06 18:31 | 51.12634 | 13.76178 | 720 ft | 4 kts | 211° |
| 2026-05-06 18:31 | 51.12640 | 13.76184 | 719 ft | 1 kts | 220° |
| 2026-05-06 18:34 | 51.12630 | 13.76170 | 720 ft | 5 kts | 220° |
| 2026-05-06 18:34 | 51.12587 | 13.76112 | 721 ft | 11 kts | 220° |
| 2026-05-06 18:34 | 51.12511 | 13.76009 | 720 ft | 17 kts | 220° |
| 2026-05-06 18:34 | 51.12419 | 13.75882 | 720 ft | 14 kts | 220° |
| 2026-05-06 18:35 | 51.12373 | 13.75798 | 719 ft | 10 kts | 255° |
| 2026-05-06 18:35 | 51.12390 | 13.75682 | 718 ft | 9 kts | 293° |
| 2026-05-06 18:35 | 51.12394 | 13.75665 | 718 ft | 0 kts | 293° |
| 2026-05-06 18:36 | 51.12394 | 13.75664 | 720 ft | 2 kts | 293° |
| 2026-05-06 18:36 | 51.12410 | 13.75608 | 720 ft | 8 kts | 299° |
| 2026-05-06 18:37 | 51.12450 | 13.75529 | 721 ft | 10 kts | 319° |
| 2026-05-06 18:37 | 51.12483 | 13.75511 | 722 ft | 6 kts | 14° |
| 2026-05-06 18:37 | 51.12543 | 13.75574 | 722 ft | 0 kts | 40° |
| 2026-05-06 18:38 | 51.12637 | 13.75703 | 723 ft | 55 kts | 40° |
| 2026-05-06 18:38 | 51.13140 | 13.76394 | 722 ft | 129 kts | 41° |
| 2026-05-06 18:38 | 51.13933 | 13.77482 | 847 ft | 159 kts | 40° |
| 2026-05-06 18:39 | 51.14735 | 13.78593 | 1551 ft | 152 kts | 40° |
| 2026-05-06 18:39 | 51.15536 | 13.79717 | 2171 ft | 156 kts | 42° |
| 2026-05-06 18:39 | 51.16366 | 13.80922 | 2594 ft | 168 kts | 41° |
| 2026-05-06 18:40 | 51.18311 | 13.83646 | 2958 ft | 208 kts | 40° |
| 2026-05-06 18:40 | 51.19482 | 13.85242 | 3331 ft | 234 kts | 39° |
| 2026-05-06 18:40 | 51.20951 | 13.86619 | 3716 ft | 259 kts | 14° |
| 2026-05-06 18:40 | 51.22771 | 13.86689 | 4450 ft | 268 kts | 344° |
| 2026-05-06 18:41 | 51.24524 | 13.85657 | 5332 ft | 270 kts | 334° |
| 2026-05-06 18:41 | 51.26292 | 13.84561 | 6264 ft | 275 kts | 339° |
| 2026-05-06 18:41 | 51.28162 | 13.83749 | 7153 ft | 281 kts | 345° |
| 2026-05-06 18:41 | 51.29992 | 13.82745 | 8011 ft | 282 kts | 326° |
| 2026-05-06 18:42 | 51.31420 | 13.80632 | 8886 ft | 280 kts | 300° |
| 2026-05-06 18:42 | 51.32117 | 13.77776 | 9800 ft | 276 kts | 274° |
| 2026-05-06 18:42 | 51.32282 | 13.74662 | 10364 ft | 291 kts | 272° |
| 2026-05-06 18:42 | 51.32462 | 13.71310 | 10625 ft | 313 kts | 272° |
| 2026-05-06 18:43 | 51.32668 | 13.67736 | 11042 ft | 328 kts | 273° |
| 2026-05-06 18:43 | 51.32885 | 13.64077 | 11816 ft | 332 kts | 272° |
| 2026-05-06 18:43 | 51.33102 | 13.60390 | 12595 ft | 335 kts | 272° |
| 2026-05-06 18:43 | 51.33314 | 13.56707 | 13343 ft | 339 kts | 272° |
| 2026-05-06 18:44 | 51.33530 | 13.52925 | 14041 ft | 342 kts | 272° |
| 2026-05-06 18:44 | 51.33745 | 13.49106 | 14726 ft | 346 kts | 272° |
| 2026-05-06 18:44 | 51.34021 | 13.45236 | 15308 ft | 353 kts | 275° |
| 2026-05-06 18:44 | 51.34357 | 13.41322 | 15989 ft | 356 kts | 275° |
| 2026-05-06 18:45 | 51.34698 | 13.37420 | 16628 ft | 360 kts | 275° |
| 2026-05-06 18:45 | 51.35039 | 13.33429 | 17256 ft | 364 kts | 275° |
| 2026-05-06 18:45 | 51.35375 | 13.29394 | 17887 ft | 368 kts | 274° |
| 2026-05-06 18:45 | 51.35602 | 13.26622 | 18276 ft | 371 kts | 274° |
| 2026-05-06 18:46 | 51.36039 | 13.21197 | 19028 ft | 374 kts | 274° |
| 2026-05-06 18:46 | 51.36370 | 13.17046 | 19583 ft | 376 kts | 274° |
| 2026-05-06 18:46 | 51.36701 | 13.12879 | 20135 ft | 379 kts | 274° |
| 2026-05-06 18:46 | 51.37034 | 13.08666 | 20661 ft | 382 kts | 274° |
| 2026-05-06 18:47 | 51.37365 | 13.04463 | 21199 ft | 385 kts | 274° |
| 2026-05-06 18:47 | 51.37696 | 13.00223 | 21745 ft | 387 kts | 274° |
| 2026-05-06 18:47 | 51.38033 | 12.95910 | 22260 ft | 390 kts | 274° |
| 2026-05-06 18:47 | 51.38368 | 12.91585 | 22779 ft | 393 kts | 274° |
| 2026-05-06 18:48 | 51.38706 | 12.87210 | 23313 ft | 396 kts | 274° |
| 2026-05-06 18:48 | 51.39044 | 12.82806 | 23705 ft | 400 kts | 274° |
| 2026-05-06 18:48 | 51.39381 | 12.78386 | 23784 ft | 410 kts | 274° |
| 2026-05-06 18:48 | 51.39730 | 12.73767 | 23779 ft | 423 kts | 274° |
| 2026-05-06 18:49 | 51.40085 | 12.69060 | 23782 ft | 426 kts | 274° |
| 2026-05-06 18:49 | 51.40442 | 12.64356 | 23775 ft | 424 kts | 274° |
| 2026-05-06 18:49 | 51.40796 | 12.59648 | 23782 ft | 424 kts | 274° |
| 2026-05-06 18:49 | 51.41142 | 12.55015 | 23781 ft | 424 kts | 274° |
| 2026-05-06 18:50 | 51.41491 | 12.50297 | 23771 ft | 426 kts | 274° |
| 2026-05-06 18:50 | 51.41839 | 12.45561 | 23773 ft | 427 kts | 274° |
| 2026-05-06 18:50 | 51.42185 | 12.40838 | 23777 ft | 426 kts | 274° |
| 2026-05-06 18:50 | 51.42528 | 12.36120 | 23781 ft | 427 kts | 274° |
| 2026-05-06 18:51 | 51.42871 | 12.31382 | 23780 ft | 427 kts | 274° |
| 2026-05-06 18:51 | 51.43207 | 12.26709 | 23774 ft | 426 kts | 274° |
| 2026-05-06 18:51 | 51.43545 | 12.21993 | 23768 ft | 426 kts | 274° |
| 2026-05-06 18:51 | 51.43881 | 12.17261 | 23777 ft | 426 kts | 274° |
| 2026-05-06 18:52 | 51.44215 | 12.12529 | 23780 ft | 426 kts | 273° |
| 2026-05-06 18:52 | 51.44548 | 12.07799 | 23781 ft | 426 kts | 273° |
| 2026-05-06 18:52 | 51.44766 | 12.04673 | 23791 ft | 425 kts | 274° |
| 2026-05-06 18:52 | 51.45202 | 11.98410 | 23788 ft | 425 kts | 274° |
| 2026-05-06 18:53 | 51.45418 | 11.95278 | 23788 ft | 425 kts | 274° |
| 2026-05-06 18:53 | 51.45742 | 11.90568 | 23784 ft | 425 kts | 274° |
| 2026-05-06 18:53 | 51.46064 | 11.85857 | 23785 ft | 425 kts | 274° |
| 2026-05-06 18:53 | 51.46385 | 11.81130 | 23785 ft | 425 kts | 274° |
| 2026-05-06 18:54 | 51.46704 | 11.76415 | 23786 ft | 425 kts | 274° |
| 2026-05-06 18:54 | 51.47020 | 11.71697 | 23790 ft | 425 kts | 274° |
| 2026-05-06 18:54 | 51.47335 | 11.66979 | 23790 ft | 425 kts | 274° |
| 2026-05-06 18:54 | 51.47643 | 11.62319 | 23792 ft | 425 kts | 274° |
| 2026-05-06 18:55 | 51.47956 | 11.57589 | 23795 ft | 423 kts | 274° |
| 2026-05-06 18:55 | 51.48263 | 11.52910 | 23789 ft | 421 kts | 274° |
| 2026-05-06 18:55 | 51.48568 | 11.48220 | 23791 ft | 421 kts | 274° |
| 2026-05-06 18:55 | 51.48871 | 11.43539 | 23790 ft | 421 kts | 273° |
| 2026-05-06 18:56 | 51.49167 | 11.38911 | 23790 ft | 421 kts | 274° |
| 2026-05-06 18:56 | 51.49468 | 11.34193 | 23794 ft | 426 kts | 274° |
| 2026-05-06 18:56 | 51.49768 | 11.29471 | 23798 ft | 425 kts | 274° |
| 2026-05-06 18:56 | 51.50066 | 11.24739 | 23796 ft | 425 kts | 273° |
| 2026-05-06 18:57 | 51.50362 | 11.20022 | 23801 ft | 425 kts | 273° |
| 2026-05-06 18:57 | 51.50656 | 11.15290 | 23798 ft | 425 kts | 273° |
| 2026-05-06 18:57 | 51.50948 | 11.10562 | 23810 ft | 424 kts | 273° |
| 2026-05-06 18:57 | 51.51238 | 11.05866 | 23798 ft | 421 kts | 273° |
| 2026-05-06 18:58 | 51.51519 | 11.01248 | 23798 ft | 420 kts | 273° |
| 2026-05-06 18:58 | 51.51802 | 10.96566 | 23800 ft | 420 kts | 273° |
| 2026-05-06 18:58 | 51.52084 | 10.91877 | 23798 ft | 420 kts | 273° |
| 2026-05-06 18:58 | 51.52361 | 10.87250 | 23799 ft | 420 kts | 273° |
| 2026-05-06 18:59 | 51.52639 | 10.82575 | 23796 ft | 420 kts | 273° |
| 2026-05-06 18:59 | 51.52915 | 10.77898 | 23795 ft | 420 kts | 273° |
| 2026-05-06 18:59 | 51.53188 | 10.73241 | 23796 ft | 420 kts | 273° |
| 2026-05-06 18:59 | 51.53465 | 10.68510 | 23796 ft | 420 kts | 273° |
| 2026-05-06 19:00 | 51.53699 | 10.63875 | 23810 ft | 419 kts | 270° |
| 2026-05-06 19:00 | 51.53693 | 10.59224 | 23804 ft | 413 kts | 265° |
| 2026-05-06 19:00 | 51.53597 | 10.54599 | 23802 ft | 414 kts | 266° |
| 2026-05-06 19:00 | 51.53529 | 10.49973 | 23803 ft | 414 kts | 266° |
| 2026-05-06 19:01 | 51.53466 | 10.45348 | 23801 ft | 414 kts | 266° |
| 2026-05-06 19:01 | 51.53397 | 10.40781 | 23803 ft | 414 kts | 266° |
| 2026-05-06 19:01 | 51.53323 | 10.36160 | 23801 ft | 414 kts | 266° |
| 2026-05-06 19:01 | 51.53248 | 10.31530 | 23803 ft | 414 kts | 266° |
| 2026-05-06 19:02 | 51.53170 | 10.26904 | 23803 ft | 414 kts | 266° |
| 2026-05-06 19:02 | 51.53089 | 10.22279 | 23803 ft | 414 kts | 266° |
| 2026-05-06 19:02 | 51.53006 | 10.17652 | 23805 ft | 414 kts | 266° |
| 2026-05-06 19:02 | 51.52921 | 10.13031 | 23815 ft | 415 kts | 266° |
| 2026-05-06 19:03 | 51.52833 | 10.08376 | 23800 ft | 417 kts | 266° |
| 2026-05-06 19:03 | 51.52745 | 10.03765 | 23808 ft | 417 kts | 266° |
| 2026-05-06 19:03 | 51.52654 | 9.99113 | 23812 ft | 417 kts | 266° |
| 2026-05-06 19:03 | 51.52561 | 9.94454 | 23812 ft | 417 kts | 266° |
| 2026-05-06 19:04 | 51.52466 | 9.89801 | 23811 ft | 417 kts | 266° |
| 2026-05-06 19:04 | 51.52370 | 9.85197 | 23814 ft | 417 kts | 266° |
| 2026-05-06 19:04 | 51.52272 | 9.80538 | 23816 ft | 417 kts | 266° |
| 2026-05-06 19:04 | 51.52172 | 9.75868 | 23820 ft | 417 kts | 266° |
| 2026-05-06 19:05 | 51.52070 | 9.71218 | 23820 ft | 417 kts | 266° |
| 2026-05-06 19:05 | 51.51965 | 9.66558 | 23821 ft | 417 kts | 266° |
| 2026-05-06 19:05 | 51.51857 | 9.61931 | 23827 ft | 422 kts | 267° |
| 2026-05-06 19:05 | 51.51747 | 9.57201 | 23825 ft | 423 kts | 267° |
| 2026-05-06 19:06 | 51.51635 | 9.52479 | 23825 ft | 423 kts | 267° |
| 2026-05-06 19:06 | 51.51521 | 9.47771 | 23828 ft | 423 kts | 267° |
| 2026-05-06 19:06 | 51.51405 | 9.43044 | 23837 ft | 423 kts | 267° |
| 2026-05-06 19:06 | 51.51288 | 9.38365 | 23828 ft | 423 kts | 267° |
| 2026-05-06 19:07 | 51.51168 | 9.33642 | 23822 ft | 422 kts | 267° |
| 2026-05-06 19:07 | 51.51046 | 9.28915 | 23821 ft | 422 kts | 267° |
| 2026-05-06 19:07 | 51.50922 | 9.24190 | 23829 ft | 423 kts | 267° |
| 2026-05-06 19:07 | 51.50797 | 9.19484 | 23829 ft | 423 kts | 267° |
| 2026-05-06 19:08 | 51.50670 | 9.14771 | 23827 ft | 422 kts | 266° |
| 2026-05-06 19:08 | 51.50567 | 9.10061 | 23832 ft | 423 kts | 269° |
| 2026-05-06 19:08 | 51.50634 | 9.05344 | 23838 ft | 423 kts | 270° |
| 2026-05-06 19:08 | 51.50704 | 9.00680 | 23841 ft | 423 kts | 270° |
| 2026-05-06 19:09 | 51.50767 | 8.95961 | 23848 ft | 423 kts | 270° |
| 2026-05-06 19:09 | 51.50826 | 8.91244 | 23848 ft | 423 kts | 270° |
| 2026-05-06 19:09 | 51.50881 | 8.86529 | 23850 ft | 423 kts | 270° |
| 2026-05-06 19:09 | 51.50935 | 8.81801 | 23852 ft | 423 kts | 270° |
| 2026-05-06 19:10 | 51.50987 | 8.77071 | 23850 ft | 423 kts | 270° |
| 2026-05-06 19:10 | 51.51037 | 8.72338 | 23854 ft | 423 kts | 270° |
| 2026-05-06 19:10 | 51.51084 | 8.67671 | 23856 ft | 423 kts | 270° |
| 2026-05-06 19:10 | 51.51131 | 8.62907 | 23854 ft | 428 kts | 270° |
| 2026-05-06 19:11 | 51.51117 | 8.58111 | 23855 ft | 427 kts | 264° |
| 2026-05-06 19:11 | 51.50746 | 8.53440 | 23742 ft | 414 kts | 261° |
| 2026-05-06 19:11 | 51.50358 | 8.48927 | 23486 ft | 402 kts | 262° |
| 2026-05-06 19:11 | 51.49987 | 8.44582 | 23172 ft | 394 kts | 261° |
| 2026-05-06 19:12 | 51.49617 | 8.40242 | 22834 ft | 391 kts | 262° |
| 2026-05-06 19:12 | 51.49249 | 8.35919 | 22506 ft | 390 kts | 262° |
| 2026-05-06 19:12 | 51.48882 | 8.31599 | 22181 ft | 389 kts | 262° |
| 2026-05-06 19:12 | 51.48515 | 8.27302 | 21863 ft | 387 kts | 262° |
| 2026-05-06 19:13 | 51.48148 | 8.23029 | 21552 ft | 385 kts | 262° |
| 2026-05-06 19:13 | 51.47786 | 8.18822 | 21243 ft | 383 kts | 262° |
| 2026-05-06 19:13 | 51.47420 | 8.14593 | 20945 ft | 383 kts | 262° |
| 2026-05-06 19:13 | 51.47051 | 8.10345 | 20645 ft | 382 kts | 262° |
| 2026-05-06 19:14 | 51.46673 | 8.06128 | 20330 ft | 380 kts | 259° |
| 2026-05-06 19:14 | 51.45937 | 8.02068 | 20036 ft | 379 kts | 252° |
| 2026-05-06 19:14 | 51.45107 | 7.98069 | 19731 ft | 377 kts | 252° |
| 2026-05-06 19:14 | 51.44293 | 7.94125 | 19446 ft | 376 kts | 252° |
| 2026-05-06 19:15 | 51.43473 | 7.90136 | 19157 ft | 374 kts | 252° |
| 2026-05-06 19:15 | 51.42658 | 7.86176 | 18875 ft | 373 kts | 252° |
| 2026-05-06 19:15 | 51.41847 | 7.82235 | 18591 ft | 371 kts | 252° |
| 2026-05-06 19:15 | 51.41039 | 7.78317 | 18301 ft | 370 kts | 252° |
| 2026-05-06 19:16 | 51.40229 | 7.74399 | 17995 ft | 369 kts | 252° |
| 2026-05-06 19:16 | 51.39433 | 7.70550 | 17676 ft | 367 kts | 252° |
| 2026-05-06 19:16 | 51.38627 | 7.66667 | 17351 ft | 365 kts | 252° |
| 2026-05-06 19:16 | 51.37827 | 7.62823 | 17086 ft | 363 kts | 252° |
| 2026-05-06 19:17 | 51.37027 | 7.58987 | 16620 ft | 363 kts | 252° |
| 2026-05-06 19:17 | 51.36226 | 7.55146 | 16091 ft | 361 kts | 253° |
| 2026-05-06 19:17 | 51.35435 | 7.51370 | 15576 ft | 357 kts | 253° |
| 2026-05-06 19:17 | 51.34651 | 7.47628 | 15052 ft | 353 kts | 253° |
| 2026-05-06 19:18 | 51.33870 | 7.43910 | 14558 ft | 350 kts | 253° |
| 2026-05-06 19:18 | 51.33105 | 7.40272 | 14064 ft | 348 kts | 253° |
| 2026-05-06 19:18 | 51.32337 | 7.36625 | 13547 ft | 346 kts | 253° |
| 2026-05-06 19:18 | 51.31570 | 7.32991 | 13028 ft | 343 kts | 253° |
| 2026-05-06 19:19 | 51.30810 | 7.29394 | 12556 ft | 339 kts | 253° |
| 2026-05-06 19:19 | 51.30058 | 7.25840 | 12076 ft | 336 kts | 253° |
| 2026-05-06 19:19 | 51.29310 | 7.22315 | 11591 ft | 333 kts | 253° |
| 2026-05-06 19:19 | 51.28567 | 7.18819 | 11128 ft | 330 kts | 253° |
| 2026-05-06 19:20 | 51.27838 | 7.15395 | 10656 ft | 328 kts | 254° |
| 2026-05-06 19:20 | 51.27105 | 7.11958 | 10264 ft | 323 kts | 253° |
| 2026-05-06 19:20 | 51.26392 | 7.08630 | 10138 ft | 310 kts | 254° |
| 2026-05-06 19:20 | 51.25705 | 7.05429 | 10029 ft | 298 kts | 254° |
| 2026-05-06 19:21 | 51.25039 | 7.02320 | 9803 ft | 295 kts | 254° |
| 2026-05-06 19:21 | 51.24374 | 6.99215 | 9684 ft | 294 kts | 254° |
| 2026-05-06 19:21 | 51.23718 | 6.96157 | 9484 ft | 293 kts | 254° |
| 2026-05-06 19:21 | 51.23062 | 6.93114 | 9126 ft | 289 kts | 254° |
| 2026-05-06 19:22 | 51.22408 | 6.90081 | 8741 ft | 288 kts | 254° |
| 2026-05-06 19:22 | 51.21758 | 6.87064 | 8355 ft | 287 kts | 254° |
| 2026-05-06 19:22 | 51.21109 | 6.84057 | 7972 ft | 286 kts | 253° |
| 2026-05-06 19:22 | 51.20285 | 6.81157 | 7589 ft | 287 kts | 242° |
| 2026-05-06 19:23 | 51.19122 | 6.78561 | 7201 ft | 287 kts | 233° |
| 2026-05-06 19:23 | 51.17909 | 6.76092 | 6840 ft | 285 kts | 234° |
| 2026-05-06 19:23 | 51.16706 | 6.73583 | 6477 ft | 284 kts | 235° |
| 2026-05-06 19:23 | 51.15514 | 6.71081 | 6102 ft | 283 kts | 235° |
| 2026-05-06 19:24 | 51.14328 | 6.68593 | 5707 ft | 281 kts | 235° |
| 2026-05-06 19:24 | 51.13144 | 6.66117 | 5329 ft | 278 kts | 235° |
| 2026-05-06 19:24 | 51.11994 | 6.63719 | 4943 ft | 271 kts | 234° |
| 2026-05-06 19:24 | 51.10865 | 6.61369 | 4613 ft | 264 kts | 234° |
| 2026-05-06 19:25 | 51.09751 | 6.59052 | 4314 ft | 264 kts | 234° |
| 2026-05-06 19:25 | 51.08637 | 6.56735 | 4037 ft | 260 kts | 234° |
| 2026-05-06 19:25 | 51.07573 | 6.54527 | 4001 ft | 247 kts | 234° |
| 2026-05-06 19:25 | 51.06558 | 6.52406 | 3977 ft | 237 kts | 238° |
| 2026-05-06 19:26 | 51.06015 | 6.49997 | 4001 ft | 232 kts | 270° |
| 2026-05-06 19:26 | 51.06349 | 6.47553 | 3998 ft | 226 kts | 302° |
| 2026-05-06 19:26 | 51.07433 | 6.45712 | 4002 ft | 234 kts | 323° |
| 2026-05-06 19:26 | 51.08709 | 6.44086 | 3997 ft | 233 kts | 323° |
| 2026-05-06 19:27 | 51.09998 | 6.42595 | 3980 ft | 223 kts | 337° |
| 2026-05-06 19:27 | 51.11477 | 6.42215 | 3996 ft | 220 kts | 9° |
| 2026-05-06 19:27 | 51.12809 | 6.43384 | 4010 ft | 228 kts | 45° |
| 2026-05-06 19:27 | 51.13805 | 6.45407 | 3979 ft | 232 kts | 52° |
| 2026-05-06 19:28 | 51.14737 | 6.47483 | 3951 ft | 228 kts | 51° |
| 2026-05-06 19:28 | 51.15676 | 6.49492 | 3758 ft | 223 kts | 51° |
| 2026-05-06 19:28 | 51.16588 | 6.51397 | 3552 ft | 217 kts | 51° |
| 2026-05-06 19:28 | 51.17506 | 6.53317 | 3233 ft | 217 kts | 51° |
| 2026-05-06 19:29 | 51.18419 | 6.55224 | 3015 ft | 216 kts | 51° |
| 2026-05-06 19:29 | 51.19328 | 6.57124 | 2995 ft | 213 kts | 51° |
| 2026-05-06 19:29 | 51.20210 | 6.58970 | 2786 ft | 209 kts | 51° |
| 2026-05-06 19:29 | 51.21082 | 6.60793 | 2496 ft | 208 kts | 51° |
| 2026-05-06 19:30 | 51.21946 | 6.62601 | 2207 ft | 200 kts | 51° |
| 2026-05-06 19:30 | 51.22738 | 6.64263 | 1946 ft | 174 kts | 50° |
| 2026-05-06 19:30 | 51.23407 | 6.65665 | 1742 ft | 146 kts | 50° |
| 2026-05-06 19:30 | 51.23994 | 6.66892 | 1522 ft | 135 kts | 49° |
| 2026-05-06 19:31 | 51.24566 | 6.68079 | 1358 ft | 134 kts | 49° |
| 2026-05-06 19:31 | 51.25133 | 6.69235 | 1190 ft | 134 kts | 48° |
| 2026-05-06 19:31 | 51.26255 | 6.71625 | 835 ft | 135 kts | 49° |
| 2026-05-06 19:32 | 51.26827 | 6.72800 | 642 ft | 132 kts | 50° |
| 2026-05-06 19:32 | 51.27370 | 6.73976 | 456 ft | 130 kts | 47° |
| 2026-05-06 19:32 | 51.27936 | 6.75132 | 241 ft | 132 kts | 49° |
| 2026-05-06 19:32 | 51.28461 | 6.76242 | 135 ft | 112 kts | 53° |
| 2026-05-06 19:33 | 51.28843 | 6.77047 | 128 ft | 75 kts | 52° |
| 2026-05-06 19:33 | 51.29103 | 6.77598 | 132 ft | 51 kts | 52° |
| 2026-05-06 19:33 | 51.29283 | 6.77975 | 142 ft | 37 kts | 53° |
| 2026-05-06 19:33 | 51.29442 | 6.78306 | 151 ft | 36 kts | 52° |
| 2026-05-06 19:34 | 51.29506 | 6.78506 | 156 ft | 10 kts | 123° |
| 2026-05-06 19:34 | 51.29444 | 6.78564 | 157 ft | 12 kts | 171° |
| 2026-05-06 19:34 | 51.29428 | 6.78567 | 157 ft | 0 kts | 174° |
| 2026-05-06 19:35 | 51.29405 | 6.78571 | 157 ft | 7 kts | 175° |
| 2026-05-06 19:35 | 51.29336 | 6.78541 | 155 ft | 13 kts | 225° |
| 2026-05-06 19:35 | 51.29260 | 6.78395 | 149 ft | 20 kts | 232° |
| 2026-05-06 19:35 | 51.29195 | 6.78257 | 143 ft | 17 kts | 233° |
| 2026-05-06 19:36 | 51.29121 | 6.78101 | 138 ft | 17 kts | 233° |
| 2026-05-06 19:36 | 51.29054 | 6.77961 | 126 ft | 17 kts | 232° |
| 2026-05-06 19:36 | 51.29037 | 6.77927 | 127 ft | 0 kts | 232° |
| 2026-05-06 19:38 | 51.29038 | 6.77927 | 127 ft | 0 kts | 232° |
| 2026-05-06 19:40 | 51.29033 | 6.77917 | 129 ft | 6 kts | 232° |
| 2026-05-06 19:40 | 51.28992 | 6.77832 | 130 ft | 11 kts | 232° |
| 2026-05-06 19:40 | 51.28961 | 6.77768 | 131 ft | 11 kts | 232° |
| 2026-05-06 19:41 | 51.28923 | 6.77704 | 130 ft | 5 kts | 198° |
| 2026-05-06 19:41 | 51.28882 | 6.77721 | 124 ft | 7 kts | 145° |
| 2026-05-06 19:41 | 51.28845 | 6.77764 | 127 ft | 4 kts | 143° |
| 2026-05-06 19:41 | 51.28828 | 6.77784 | 127 ft | 4 kts | 142° |
| 2026-05-06 19:42 | 51.28816 | 6.77795 | 123 ft | 2 kts | 174° |
| 2026-05-06 19:42 | 51.28793 | 6.77785 | 127 ft | 4 kts | 205° |
| 2026-05-06 19:42 | 51.28767 | 6.77759 | 124 ft | 2 kts | 229° |
| 2026-05-06 19:42 | 51.28758 | 6.77742 | 127 ft | 2 kts | 232° |
| 2026-05-06 19:43 | 51.28758 | 6.77741 | 128 ft | 0 kts | 232° |
| 2026-05-06 19:48 | 51.28758 | 6.77742 | 127 ft | 0 kts | 232° |